createdAt,value
2023-01-19T00:05:05.826Z,1003
2023-01-19T00:15:05.901Z,1003
2023-01-19T00:25:06.035Z,1003
2023-01-19T00:35:05.901Z,1003
2023-01-19T00:45:06.031Z,1002
2023-01-19T00:55:05.882Z,1002
2023-01-19T01:05:06.017Z,1002
2023-01-19T01:15:05.907Z,1002
2023-01-19T01:25:06.006Z,1002
2023-01-19T01:35:05.991Z,1002
2023-01-19T01:45:06.014Z,1002
2023-01-19T01:55:06.094Z,1002
2023-01-19T02:05:06.017Z,1002
2023-01-19T02:15:06.079Z,1002
2023-01-19T02:25:06.008Z,1002
2023-01-19T02:35:06.090Z,1002
2023-01-19T02:45:06.004Z,1002
2023-01-19T02:55:06.076Z,1002
2023-01-19T03:05:06.202Z,1002
2023-01-19T03:15:06.065Z,1002
2023-01-19T03:25:06.184Z,1002
2023-01-19T03:35:06.056Z,1002
2023-01-19T03:45:06.197Z,1002
2023-01-19T03:55:06.066Z,1002
2023-01-19T04:05:06.185Z,1002
2023-01-19T04:15:06.053Z,1002
2023-01-19T04:25:06.174Z,1002
2023-01-19T04:35:06.251Z,1002
2023-01-19T04:45:06.172Z,1002
2023-01-19T04:55:06.252Z,1001
2023-01-19T05:05:06.169Z,1001
2023-01-19T05:15:06.242Z,1001
2023-01-19T05:25:06.161Z,1001
2023-01-19T05:35:06.234Z,1001
2023-01-19T05:45:06.154Z,1002
2023-01-19T05:55:06.237Z,1002
2023-01-19T06:05:06.358Z,1001
2023-01-19T06:15:06.237Z,1001
2023-01-19T06:25:06.344Z,1001
2023-01-19T06:35:06.222Z,1001
2023-01-19T06:45:06.346Z,1001
2023-01-19T06:55:06.214Z,1001
2023-01-19T07:05:06.342Z,1001
2023-01-19T07:15:06.410Z,1001
2023-01-19T07:25:06.345Z,1001
2023-01-19T07:35:06.405Z,1001
2023-01-19T07:45:06.331Z,1002
2023-01-19T07:55:06.404Z,1002
2023-01-19T08:05:06.327Z,1002
2023-01-19T08:15:06.396Z,1002
2023-01-19T08:25:06.360Z,1002
2023-01-19T08:35:06.433Z,1002
2023-01-19T08:45:06.522Z,1002
2023-01-19T08:55:06.388Z,1002
2023-01-19T09:05:06.630Z,1003
2023-01-19T09:15:06.430Z,1003
2023-01-19T09:25:06.593Z,1003
2023-01-19T09:35:06.392Z,1003
2023-01-19T09:45:06.558Z,1003
2023-01-19T09:55:06.372Z,1003
2023-01-19T10:05:06.603Z,1003
2023-01-19T10:15:06.589Z,1003
2023-01-19T10:25:06.499Z,1003
2023-01-19T10:35:06.568Z,1003
2023-01-19T10:45:06.522Z,1004
2023-01-19T10:55:06.555Z,1004
2023-01-19T11:05:06.540Z,1004
2023-01-19T11:15:06.579Z,1004
2023-01-19T11:25:06.693Z,1004
2023-01-19T11:35:06.535Z,1005
2023-01-19T11:45:06.697Z,1005
2023-01-19T11:55:06.560Z,1005
2023-01-19T12:05:06.797Z,1006
2023-01-19T12:15:06.553Z,1006
2023-01-19T12:25:06.684Z,1006
2023-01-19T12:35:06.540Z,1007
2023-01-19T12:45:06.672Z,1007
2023-01-19T12:55:06.751Z,1007
2023-01-19T13:05:06.742Z,1007
2023-01-19T13:15:06.743Z,1007
2023-01-19T13:25:06.685Z,1007
2023-01-19T13:35:06.761Z,1007
2023-01-19T13:45:06.701Z,1006
2023-01-19T13:55:07.535Z,1006
2023-01-19T14:05:06.648Z,1006
2023-01-19T14:15:06.963Z,1006
2023-01-19T14:25:07.199Z,1006
2023-01-19T14:35:07.106Z,1006
2023-01-19T14:45:07.323Z,1006
2023-01-19T14:55:07.226Z,1006
2023-01-19T15:05:07.108Z,1005
2023-01-19T15:15:07.003Z,1006
2023-01-19T15:25:07.259Z,1006
2023-01-19T15:35:07.288Z,1006
2023-01-19T15:45:07.351Z,1006
2023-01-19T15:55:07.160Z,1006
2023-01-19T16:05:06.909Z,1006
2023-01-19T16:15:06.915Z,1006
2023-01-19T16:25:06.837Z,1007
2023-01-19T16:35:06.895Z,1007
2023-01-19T16:45:06.813Z,1007
2023-01-19T16:55:06.962Z,1007
2023-01-19T17:05:07.019Z,1007
2023-01-19T17:15:06.893Z,1007
2023-01-19T17:25:07.074Z,1007
2023-01-19T17:35:08.505Z,1007
2023-01-19T17:45:07.004Z,1008
2023-01-19T17:55:06.883Z,1008
2023-01-19T18:05:07.030Z,1008
2023-01-19T18:15:07.077Z,1008
2023-01-19T18:25:06.987Z,1008
2023-01-19T18:35:07.064Z,1008
2023-01-19T18:45:06.990Z,1008
2023-01-19T18:55:07.060Z,1008
2023-01-19T19:05:06.971Z,1008
2023-01-19T19:15:07.065Z,1008
2023-01-19T19:25:06.961Z,1008
2023-01-19T19:35:07.072Z,1008
2023-01-19T19:45:07.183Z,1008
2023-01-19T19:55:07.093Z,1009
2023-01-19T20:05:07.159Z,1009
2023-01-19T20:15:07.035Z,1009
2023-01-19T20:25:07.205Z,1009
2023-01-19T20:35:07.036Z,1009
2023-01-19T20:45:07.165Z,1010
2023-01-19T20:55:07.052Z,1010
2023-01-19T21:05:07.163Z,1010
2023-01-19T21:15:07.230Z,1010
2023-01-19T21:25:07.136Z,1010
2023-01-19T21:35:07.246Z,1010
2023-01-19T21:45:07.378Z,1010
2023-01-19T21:55:07.134Z,1010
2023-01-19T22:05:07.255Z,1010
2023-01-19T22:15:07.128Z,1010
2023-01-19T22:25:07.261Z,1010
2023-01-19T22:35:07.334Z,1010
2023-01-19T22:45:07.230Z,1011
2023-01-19T22:55:07.334Z,1011
2023-01-19T23:05:07.253Z,1011
2023-01-19T23:15:07.317Z,1011
2023-01-19T23:25:07.239Z,1011
2023-01-19T23:35:07.315Z,1011
2023-01-19T23:45:07.224Z,1012
2023-01-19T23:55:07.291Z,1012
